Time;durP1;ratioP1;P1;durP2;ratioP2;P2;SDS_P1;SDS_P2;PMS_P1;PMS_P2;Temp;Humidity;BMP_temperature;BMP_pressure;BME280_temperature;BME280_humidity;BME280_pressure;Samples;Min_cycle;Max_cycle;Signal;HPM_P1;HPM_P2
2023/06/27 00:01:04;;;;;;;;;;;16.90;99.90;;;;;;5072201;28;20319;-64
2023/06/27 00:03:31;;;;;;;;;;;17.00;99.90;;;;;;5072890;28;19912;-64
2023/06/27 00:06:00;;;;;;;;;;;17.00;99.90;;;;;;5072871;28;19920;-64
2023/06/27 00:08:27;;;;;;;;;;;17.00;99.90;;;;;;5073178;28;19921;-65
2023/06/27 00:10:53;;;;;;;;;;;17.00;99.90;;;;;;5068454;28;19919;-64
2023/06/27 00:13:20;;;;;;;;;;;17.00;99.90;;;;;;5073323;28;20198;-64
2023/06/27 00:15:52;;;;;;;;;;;17.00;99.90;;;;;;5065794;28;19916;-64
2023/06/27 00:18:21;;;;;;;;;;;17.10;99.90;;;;;;5070950;28;20026;-64
2023/06/27 00:20:50;;;;;;;;;;;17.10;99.90;;;;;;5066681;28;19970;-64
2023/06/27 00:23:16;;;;;;;;;;;17.10;99.90;;;;;;5054525;28;19920;-66
2023/06/27 00:25:43;;;;;;;;;;;17.30;99.90;;;;;;5074449;28;19924;-64
2023/06/27 00:28:09;;;;;;;;;;;17.30;99.90;;;;;;5074091;28;19913;-64
2023/06/27 00:30:34;;;;;;;;;;;17.40;99.90;;;;;;5072125;28;20303;-64
2023/06/27 00:33:00;;;;;;;;;;;17.40;99.90;;;;;;5071810;28;20065;-64
2023/06/27 00:35:26;;;;;;;;;;;17.40;99.90;;;;;;5072790;28;19921;-64
2023/06/27 00:37:52;;;;;;;;;;;17.40;99.90;;;;;;5074679;28;19919;-64
2023/06/27 00:40:18;;;;;;;;;;;17.30;99.90;;;;;;5072431;28;20334;-64
2023/06/27 00:42:43;;;;;;;;;;;17.30;99.90;;;;;;5069620;28;19913;-64
2023/06/27 00:45:09;;;;;;;;;;;17.30;99.90;;;;;;5070237;28;20266;-64
2023/06/27 00:47:35;;;;;;;;;;;17.30;99.90;;;;;;5073338;28;20005;-64
2023/06/27 00:50:00;;;;;;;;;;;17.30;99.90;;;;;;5073229;28;19942;-64
2023/06/27 00:52:27;;;;;;;;;;;17.20;99.90;;;;;;5066193;28;19923;-64
2023/06/27 00:54:53;;;;;;;;;;;17.20;99.90;;;;;;5071400;28;19920;-64
2023/06/27 00:57:18;;;;;;;;;;;17.10;99.90;;;;;;5072598;28;19921;-64
2023/06/27 00:59:44;;;;;;;;;;;17.10;99.90;;;;;;5070470;28;20299;-81
2023/06/27 01:02:11;;;;;;;;;;;17.00;99.90;;;;;;5072756;28;19952;-64
2023/06/27 01:04:39;;;;;;;;;;;17.00;99.90;;;;;;5066122;28;19916;-64
2023/06/27 01:07:09;;;;;;;;;;;17.00;99.90;;;;;;5067676;28;19912;-81
2023/06/27 01:09:48;;;;;;;;;;;17.00;99.90;;;;;;5071026;28;20256;-64
2023/06/27 01:12:27;;;;;;;;;;;17.10;99.90;;;;;;5070506;28;20189;-64
2023/06/27 01:14:54;;;;;;;;;;;17.20;99.90;;;;;;5075362;28;19913;-64
2023/06/27 01:17:21;;;;;;;;;;;17.10;99.90;;;;;;5074664;28;19924;-64
2023/06/27 01:19:47;;;;;;;;;;;17.20;99.90;;;;;;5074076;28;19923;-64
2023/06/27 01:22:19;;;;;;;;;;;17.20;99.90;;;;;;5077492;28;19908;-65
2023/06/27 01:24:45;;;;;;;;;;;17.10;99.90;;;;;;5059027;28;20215;-65
2023/06/27 01:27:13;;;;;;;;;;;17.10;99.90;;;;;;5077768;28;19909;-64
2023/06/27 01:29:41;;;;;;;;;;;17.00;99.90;;;;;;5076832;28;20299;-64
2023/06/27 01:32:15;;;;;;;;;;;16.90;99.90;;;;;;5077255;28;19908;-64
2023/06/27 01:35:00;;;;;;;;;;;16.80;99.90;;;;;;5076978;28;19908;-64
2023/06/27 01:37:29;;;;;;;;;;;16.80;99.90;;;;;;5051124;28;19955;-64
2023/06/27 01:40:11;;;;;;;;;;;16.80;99.90;;;;;;5077073;28;19931;-64
2023/06/27 01:42:45;;;;;;;;;;;16.70;99.90;;;;;;5075114;28;20007;-65
2023/06/27 01:45:11;;;;;;;;;;;16.60;99.90;;;;;;5072695;28;19916;-64
2023/06/27 01:47:38;;;;;;;;;;;16.50;99.90;;;;;;5070701;28;19919;-64
2023/06/27 01:50:03;;;;;;;;;;;16.50;99.90;;;;;;5076941;28;19915;-65
2023/06/27 01:52:29;;;;;;;;;;;16.40;99.90;;;;;;5077019;28;19909;-65
2023/06/27 01:54:54;;;;;;;;;;;16.30;99.90;;;;;;5075409;28;19930;-64
2023/06/27 01:57:20;;;;;;;;;;;16.30;99.90;;;;;;5074302;28;19927;-79
2023/06/27 01:59:46;;;;;;;;;;;16.30;99.90;;;;;;5076166;28;20315;-64
2023/06/27 02:02:11;;;;;;;;;;;16.30;99.90;;;;;;5075964;28;20323;-65
2023/06/27 02:04:37;;;;;;;;;;;16.20;99.90;;;;;;5076011;28;19912;-64
2023/06/27 02:07:02;;;;;;;;;;;16.20;99.90;;;;;;5076134;28;19919;-64
2023/06/27 02:09:28;;;;;;;;;;;16.30;99.90;;;;;;5075686;28;19970;-64
2023/06/27 02:11:53;;;;;;;;;;;16.30;99.90;;;;;;5072347;28;19919;-64
2023/06/27 02:14:19;;;;;;;;;;;16.30;99.90;;;;;;5075610;28;19908;-64
2023/06/27 02:16:44;;;;;;;;;;;16.30;99.90;;;;;;5075919;28;19948;-64
2023/06/27 02:19:10;;;;;;;;;;;16.30;99.90;;;;;;5070178;28;19912;-64
2023/06/27 02:21:35;;;;;;;;;;;16.20;99.90;;;;;;5074092;28;19920;-64
2023/06/27 02:24:01;;;;;;;;;;;16.10;99.90;;;;;;5075262;28;20335;-79
2023/06/27 02:26:26;;;;;;;;;;;16.10;99.90;;;;;;5075448;28;19912;-65
2023/06/27 02:28:52;;;;;;;;;;;16.10;99.90;;;;;;5075855;28;19920;-64
2023/06/27 02:31:19;;;;;;;;;;;16.10;99.90;;;;;;5074340;28;19959;-65
2023/06/27 02:33:45;;;;;;;;;;;16.00;99.90;;;;;;5073583;28;19916;-64
2023/06/27 02:36:11;;;;;;;;;;;16.10;99.90;;;;;;5075308;28;19961;-64
2023/06/27 02:38:36;;;;;;;;;;;16.00;99.90;;;;;;5071304;28;19920;-64
2023/06/27 02:41:02;;;;;;;;;;;16.00;99.90;;;;;;5071175;28;19912;-78
2023/06/27 02:43:27;;;;;;;;;;;16.00;99.90;;;;;;5071480;28;19919;-64
2023/06/27 02:45:53;;;;;;;;;;;16.00;99.90;;;;;;5074936;28;19923;-64
2023/06/27 02:48:18;;;;;;;;;;;16.10;99.90;;;;;;5074403;28;19912;-64
2023/06/27 02:50:49;;;;;;;;;;;16.10;99.90;;;;;;5074577;28;19912;-81
2023/06/27 02:53:15;;;;;;;;;;;16.10;99.90;;;;;;5062217;28;19920;-64
2023/06/27 02:55:40;;;;;;;;;;;16.10;99.90;;;;;;5075046;28;20325;-64
2023/06/27 02:58:06;;;;;;;;;;;16.20;99.90;;;;;;5074255;28;19927;-74
2023/06/27 03:00:31;;;;;;;;;;;16.20;99.90;;;;;;5074223;28;19920;-65
2023/06/27 03:02:57;;;;;;;;;;;16.20;99.90;;;;;;5065969;28;20530;-64
2023/06/27 03:05:22;;;;;;;;;;;16.20;99.90;;;;;;5073099;28;19916;-64
2023/06/27 03:07:48;;;;;;;;;;;16.10;99.90;;;;;;5074747;28;19934;-65
2023/06/27 03:10:13;;;;;;;;;;;16.10;99.90;;;;;;5073727;28;19916;-64
2023/06/27 03:12:39;;;;;;;;;;;16.10;99.90;;;;;;5074853;28;19912;-65
2023/06/27 03:15:05;;;;;;;;;;;16.10;99.90;;;;;;5068750;28;19920;-64
2023/06/27 03:17:30;;;;;;;;;;;16.00;99.90;;;;;;5072230;28;19920;-64
2023/06/27 03:19:56;;;;;;;;;;;16.00;99.90;;;;;;5074848;28;19938;-64
2023/06/27 03:22:21;;;;;;;;;;;16.00;99.90;;;;;;5075143;28;19991;-64
2023/06/27 03:24:50;;;;;;;;;;;15.90;99.90;;;;;;5074930;28;20002;-64
2023/06/27 03:27:23;;;;;;;;;;;15.90;99.90;;;;;;5074095;28;19999;-64
2023/06/27 03:29:49;;;;;;;;;;;15.90;99.90;;;;;;5069273;28;19945;-65
2023/06/27 03:32:15;;;;;;;;;;;15.90;99.90;;;;;;5074559;28;19950;-64
2023/06/27 03:34:41;;;;;;;;;;;16.00;99.90;;;;;;5074712;28;20451;-65
2023/06/27 03:37:07;;;;;;;;;;;16.00;99.90;;;;;;5074665;28;19995;-65
2023/06/27 03:39:32;;;;;;;;;;;16.00;99.90;;;;;;5075152;28;19946;-64
2023/06/27 03:41:58;;;;;;;;;;;16.10;99.90;;;;;;5074542;28;19916;-65
2023/06/27 03:44:24;;;;;;;;;;;16.10;99.90;;;;;;5074031;28;20292;-65
2023/06/27 03:46:49;;;;;;;;;;;16.10;99.90;;;;;;5072157;28;19914;-64
2023/06/27 03:49:15;;;;;;;;;;;16.10;99.90;;;;;;5056523;28;19935;-64
2023/06/27 03:51:40;;;;;;;;;;;16.10;99.90;;;;;;5074788;28;19913;-65
2023/06/27 03:54:06;;;;;;;;;;;16.20;99.90;;;;;;5072875;28;19923;-64
2023/06/27 03:56:32;;;;;;;;;;;16.30;99.90;;;;;;5062076;28;19920;-65
2023/06/27 03:58:58;;;;;;;;;;;16.30;99.90;;;;;;5069743;28;20617;-69
2023/06/27 04:01:23;;;;;;;;;;;16.30;99.90;;;;;;5072589;28;20679;-65
2023/06/27 04:03:49;;;;;;;;;;;16.40;99.90;;;;;;5074340;28;19999;-64
2023/06/27 04:06:15;;;;;;;;;;;16.30;99.90;;;;;;5074748;28;19913;-65
2023/06/27 04:08:40;;;;;;;;;;;16.30;99.90;;;;;;5072960;28;19919;-65
2023/06/27 04:11:06;;;;;;;;;;;16.40;99.90;;;;;;5071789;28;19927;-65
2023/06/27 04:13:31;;;;;;;;;;;16.50;99.90;;;;;;5065523;28;19920;-65
2023/06/27 04:15:57;;;;;;;;;;;16.50;99.90;;;;;;5067696;28;19969;-65
2023/06/27 04:18:22;;;;;;;;;;;16.60;99.90;;;;;;5070274;28;19916;-64
2023/06/27 04:20:48;;;;;;;;;;;16.70;99.90;;;;;;5073676;28;19912;-65
2023/06/27 04:23:13;;;;;;;;;;;16.70;99.90;;;;;;5072563;28;19922;-64
2023/06/27 04:25:43;;;;;;;;;;;16.70;99.90;;;;;;5074122;28;20373;-64
2023/06/27 04:28:09;;;;;;;;;;;16.80;99.90;;;;;;5043910;28;19975;-65
2023/06/27 04:30:34;;;;;;;;;;;16.80;99.90;;;;;;5074274;28;19958;-64
2023/06/27 04:33:02;;;;;;;;;;;16.80;99.90;;;;;;5073456;28;19916;-65
2023/06/27 04:35:28;;;;;;;;;;;16.80;99.90;;;;;;5049534;28;20286;-65
2023/06/27 04:37:54;;;;;;;;;;;16.80;99.90;;;;;;5074491;28;20002;-65
2023/06/27 04:40:20;;;;;;;;;;;16.70;99.90;;;;;;5076927;28;19943;-65
2023/06/27 04:42:47;;;;;;;;;;;16.70;99.90;;;;;;5054618;28;19939;-64
2023/06/27 04:45:12;;;;;;;;;;;16.80;99.90;;;;;;5074667;28;19916;-65
2023/06/27 04:47:38;;;;;;;;;;;16.80;99.90;;;;;;5058319;28;19919;-65
2023/06/27 04:50:04;;;;;;;;;;;16.80;99.90;;;;;;5078142;28;19912;-65
2023/06/27 04:52:30;;;;;;;;;;;16.90;99.90;;;;;;5076243;28;19913;-65
2023/06/27 04:54:55;;;;;;;;;;;16.80;99.90;;;;;;5054983;28;20362;-78
2023/06/27 04:57:21;;;;;;;;;;;16.80;99.90;;;;;;5075328;28;19924;-64
2023/06/27 04:59:46;;;;;;;;;;;16.80;99.90;;;;;;5076655;28;19920;-65
2023/06/27 05:02:12;;;;;;;;;;;16.80;99.90;;;;;;5076618;28;19963;-64
2023/06/27 05:04:37;;;;;;;;;;;16.80;99.90;;;;;;5074678;28;19912;-65
2023/06/27 05:07:04;;;;;;;;;;;16.80;99.90;;;;;;5076588;28;19913;-65
2023/06/27 05:09:30;;;;;;;;;;;16.70;99.90;;;;;;5076494;28;19920;-77
2023/06/27 05:11:55;;;;;;;;;;;16.80;99.90;;;;;;5057723;28;19921;-65
2023/06/27 05:14:21;;;;;;;;;;;16.80;99.90;;;;;;5075413;28;19917;-65
2023/06/27 05:16:47;;;;;;;;;;;16.80;99.90;;;;;;5076496;28;19951;-65
2023/06/27 05:19:12;;;;;;;;;;;16.80;99.90;;;;;;5076049;28;19969;-79
2023/06/27 05:21:38;;;;;;;;;;;16.90;99.90;;;;;;5074967;28;19995;-64
2023/06/27 05:24:05;;;;;;;;;;;17.00;99.90;;;;;;5075978;28;19912;-65
2023/06/27 05:26:32;;;;;;;;;;;17.00;99.90;;;;;;5057057;28;20089;-65
2023/06/27 05:28:59;;;;;;;;;;;17.00;99.90;;;;;;5077435;28;19913;-65
2023/06/27 05:31:26;;;;;;;;;;;17.00;99.90;;;;;;5076648;28;19912;-80
2023/06/27 05:33:51;;;;;;;;;;;17.10;99.90;;;;;;5074773;28;19912;-64
2023/06/27 05:36:17;;;;;;;;;;;17.10;99.90;;;;;;5072336;28;19909;-66
2023/06/27 05:38:42;;;;;;;;;;;17.10;99.90;;;;;;5076880;28;20218;-65
2023/06/27 05:41:08;;;;;;;;;;;17.20;99.90;;;;;;5076862;28;19979;-65
2023/06/27 05:43:33;;;;;;;;;;;17.20;99.90;;;;;;5076726;28;19912;-68
2023/06/27 05:45:59;;;;;;;;;;;17.20;99.90;;;;;;5076273;28;20238;-65
2023/06/27 05:48:24;;;;;;;;;;;17.30;99.90;;;;;;5077266;28;19909;-65
2023/06/27 05:50:50;;;;;;;;;;;17.30;99.90;;;;;;5076247;28;20230;-65
2023/06/27 05:53:15;;;;;;;;;;;17.30;99.90;;;;;;5077347;28;19916;-65
2023/06/27 05:55:41;;;;;;;;;;;17.30;99.90;;;;;;5068493;28;19966;-65
2023/06/27 05:58:06;;;;;;;;;;;17.30;99.90;;;;;;5076429;28;19920;-65
2023/06/27 06:00:32;;;;;;;;;;;17.50;99.90;;;;;;5077047;28;19909;-65
2023/06/27 06:02:58;;;;;;;;;;;17.50;99.90;;;;;;5076385;28;20007;-65
2023/06/27 06:05:23;;;;;;;;;;;17.60;99.90;;;;;;5058084;28;20223;-64
2023/06/27 06:07:49;;;;;;;;;;;17.70;99.90;;;;;;5071934;28;19920;-65
2023/06/27 06:10:14;;;;;;;;;;;17.70;99.90;;;;;;5077050;28;19958;-65
2023/06/27 06:12:40;;;;;;;;;;;17.70;99.90;;;;;;5067802;28;19917;-64
2023/06/27 06:15:06;;;;;;;;;;;17.70;99.90;;;;;;5076730;28;19921;-64
2023/06/27 06:17:31;;;;;;;;;;;17.70;99.90;;;;;;5071513;28;19921;-64
2023/06/27 06:19:57;;;;;;;;;;;17.70;99.90;;;;;;5073688;28;20342;-64
2023/06/27 06:22:22;;;;;;;;;;;17.70;99.90;;;;;;5057263;28;19924;-65
2023/06/27 06:24:48;;;;;;;;;;;17.90;99.90;;;;;;5074460;28;19923;-65
2023/06/27 06:27:13;;;;;;;;;;;17.90;99.90;;;;;;5073311;28;19919;-64
2023/06/27 06:29:39;;;;;;;;;;;17.90;99.90;;;;;;5072032;28;20285;-82
2023/06/27 06:32:05;;;;;;;;;;;18.00;99.90;;;;;;5076479;28;19908;-65
2023/06/27 06:34:30;;;;;;;;;;;18.00;99.90;;;;;;5076473;28;19912;-65
2023/06/27 06:36:56;;;;;;;;;;;18.10;99.90;;;;;;5075151;28;20307;-65
2023/06/27 06:39:22;;;;;;;;;;;18.10;99.90;;;;;;5069636;28;20390;-65
2023/06/27 06:41:47;;;;;;;;;;;18.10;99.90;;;;;;5074975;28;20200;-65
2023/06/27 06:44:13;;;;;;;;;;;18.20;99.90;;;;;;5076052;28;20299;-65
2023/06/27 06:46:40;;;;;;;;;;;18.30;99.90;;;;;;5075918;28;19951;-65
2023/06/27 06:49:05;;;;;;;;;;;18.40;99.90;;;;;;5065523;28;19912;-65
2023/06/27 06:51:31;;;;;;;;;;;18.50;99.90;;;;;;5071932;28;19916;-65
2023/06/27 06:53:56;;;;;;;;;;;18.50;99.90;;;;;;5075348;28;19920;-64
2023/06/27 06:56:22;;;;;;;;;;;18.50;99.90;;;;;;5065526;28;20003;-83
2023/06/27 06:58:48;;;;;;;;;;;18.60;99.90;;;;;;5073803;28;19912;-65
2023/06/27 07:01:13;;;;;;;;;;;18.70;99.90;;;;;;5073702;28;19909;-64
2023/06/27 07:03:39;;;;;;;;;;;18.80;99.90;;;;;;5073878;28;19919;-64
2023/06/27 07:06:04;;;;;;;;;;;18.80;99.90;;;;;;5055314;28;19916;-65
2023/06/27 07:08:30;;;;;;;;;;;18.80;99.90;;;;;;5075653;28;20192;-65
2023/06/27 07:10:56;;;;;;;;;;;18.90;99.90;;;;;;5075433;28;19915;-65
2023/06/27 07:13:21;;;;;;;;;;;19.00;99.90;;;;;;5075133;28;20003;-65
2023/06/27 07:15:47;;;;;;;;;;;19.10;99.90;;;;;;5069244;28;20853;-65
2023/06/27 07:18:12;;;;;;;;;;;19.10;99.90;;;;;;5075370;28;19917;-64
2023/06/27 07:20:38;;;;;;;;;;;19.20;99.90;;;;;;5075332;28;20262;-79
2023/06/27 07:23:03;;;;;;;;;;;19.20;99.90;;;;;;5074867;28;19908;-80
2023/06/27 07:25:29;;;;;;;;;;;19.30;99.90;;;;;;5075207;28;20246;-64
2023/06/27 07:27:55;;;;;;;;;;;19.40;99.90;;;;;;5075315;28;20015;-65
2023/06/27 07:30:20;;;;;;;;;;;19.50;99.90;;;;;;5074974;28;19908;-64
2023/06/27 07:32:46;;;;;;;;;;;19.50;99.90;;;;;;5075071;28;19920;-77
2023/06/27 07:35:11;;;;;;;;;;;19.50;99.90;;;;;;5057288;28;19913;-64
2023/06/27 07:37:37;;;;;;;;;;;19.70;99.90;;;;;;5074706;28;20311;-65
2023/06/27 07:40:02;;;;;;;;;;;19.70;99.90;;;;;;5074456;28;19950;-81
2023/06/27 07:42:28;;;;;;;;;;;19.80;99.90;;;;;;5075020;28;20188;-65
2023/06/27 07:44:53;;;;;;;;;;;19.80;99.90;;;;;;5074942;28;19912;-65
2023/06/27 07:47:19;;;;;;;;;;;19.90;99.90;;;;;;5074678;28;19908;-65
2023/06/27 07:49:45;;;;;;;;;;;20.10;99.90;;;;;;5074912;28;19908;-88
2023/06/27 07:52:11;;;;;;;;;;;20.10;99.90;;;;;;5074545;28;19916;-65
2023/06/27 07:54:36;;;;;;;;;;;20.10;99.90;;;;;;5074503;28;19999;-65
2023/06/27 07:57:02;;;;;;;;;;;20.10;99.90;;;;;;5074640;28;20057;-64
2023/06/27 07:59:28;;;;;;;;;;;20.30;99.90;;;;;;5074667;28;19915;-65
2023/06/27 08:01:54;;;;;;;;;;;20.50;99.90;;;;;;5074756;28;19909;-65
2023/06/27 08:04:20;;;;;;;;;;;20.70;99.90;;;;;;5073642;28;20281;-65
2023/06/27 08:06:45;;;;;;;;;;;20.80;99.90;;;;;;5074580;28;19920;-66
2023/06/27 08:09:11;;;;;;;;;;;20.70;99.90;;;;;;5074459;28;20215;-65
2023/06/27 08:11:36;;;;;;;;;;;20.70;99.90;;;;;;5073751;28;19920;-66
2023/06/27 08:14:02;;;;;;;;;;;20.60;99.90;;;;;;5077144;28;19915;-66
2023/06/27 08:16:27;;;;;;;;;;;20.50;99.90;;;;;;5076751;28;20007;-84
2023/06/27 08:18:53;;;;;;;;;;;20.40;99.90;;;;;;5077408;28;19909;-65
2023/06/27 08:21:19;;;;;;;;;;;20.30;99.90;;;;;;5077046;28;19909;-65
2023/06/27 08:23:44;;;;;;;;;;;20.30;99.90;;;;;;5078504;28;20227;-64
2023/06/27 08:26:16;;;;;;;;;;;20.30;99.90;;;;;;5078249;28;19915;-66
2023/06/27 08:28:42;;;;;;;;;;;20.30;99.90;;;;;;5068357;28;19916;-65
2023/06/27 08:31:08;;;;;;;;;;;20.40;99.90;;;;;;5078065;28;20210;-65
2023/06/27 08:33:33;;;;;;;;;;;20.40;99.90;;;;;;5078186;28;19908;-81
2023/06/27 08:35:59;;;;;;;;;;;20.50;99.90;;;;;;5078301;28;19908;-65
2023/06/27 08:38:24;;;;;;;;;;;20.70;99.90;;;;;;5078334;28;19962;-66
2023/06/27 08:40:54;;;;;;;;;;;20.70;99.90;;;;;;5078334;28;20045;-83
2023/06/27 08:43:20;;;;;;;;;;;20.80;99.90;;;;;;5078235;28;19909;-65
2023/06/27 08:45:47;;;;;;;;;;;20.80;99.90;;;;;;5078315;28;20299;-66
2023/06/27 08:48:13;;;;;;;;;;;20.70;99.90;;;;;;5078173;28;19909;-67
2023/06/27 08:50:42;;;;;;;;;;;20.80;99.90;;;;;;5077696;28;19995;-80
2023/06/27 08:53:10;;;;;;;;;;;20.80;99.90;;;;;;5078369;28;20008;-66
2023/06/27 08:55:52;;;;;;;;;;;20.90;99.90;;;;;;5077961;28;19908;-87
2023/06/27 08:58:20;;;;;;;;;;;20.90;99.90;;;;;;5068021;28;19913;-67
2023/06/27 09:00:46;;;;;;;;;;;20.80;99.90;;;;;;5077473;28;19954;-64
2023/06/27 09:03:11;;;;;;;;;;;20.80;99.90;;;;;;5077846;28;20247;-65
2023/06/27 09:05:37;;;;;;;;;;;20.90;99.90;;;;;;5059821;28;20018;-67
2023/06/27 09:08:03;;;;;;;;;;;21.00;99.90;;;;;;5077773;28;20295;-66
2023/06/27 09:10:28;;;;;;;;;;;21.10;99.90;;;;;;5078126;28;19908;-66
2023/06/27 09:12:54;;;;;;;;;;;21.10;99.90;;;;;;5077008;28;19912;-66
2023/06/27 09:15:20;;;;;;;;;;;21.30;99.90;;;;;;5077561;28;19908;-85
2023/06/27 09:17:46;;;;;;;;;;;21.30;99.90;;;;;;5077102;28;19956;-65
2023/06/27 09:20:18;;;;;;;;;;;21.40;99.90;;;;;;5077473;28;19962;-65
2023/06/27 09:22:44;;;;;;;;;;;21.40;99.90;;;;;;5077688;28;19909;-82
2023/06/27 09:25:09;;;;;;;;;;;21.40;99.90;;;;;;5076369;28;19916;-66
2023/06/27 09:27:35;;;;;;;;;;;21.40;99.90;;;;;;5077332;28;19908;-84
2023/06/27 09:30:02;;;;;;;;;;;21.30;99.90;;;;;;5077311;28;19912;-65
2023/06/27 09:32:28;;;;;;;;;;;21.10;99.90;;;;;;5077442;28;20329;-85
2023/06/27 09:34:53;;;;;;;;;;;21.00;99.90;;;;;;5077220;28;19910;-66
2023/06/27 09:37:19;;;;;;;;;;;20.90;99.90;;;;;;5077419;28;19913;-65
2023/06/27 09:39:45;;;;;;;;;;;20.80;99.90;;;;;;5077193;28;19995;-80
2023/06/27 09:42:10;;;;;;;;;;;20.80;99.90;;;;;;5077007;28;19997;-65
2023/06/27 09:44:36;;;;;;;;;;;20.70;99.90;;;;;;5077241;28;19969;-65
2023/06/27 09:47:02;;;;;;;;;;;20.70;99.90;;;;;;5076819;28;19912;-66
2023/06/27 09:49:28;;;;;;;;;;;20.60;99.90;;;;;;5074992;28;19912;-68
2023/06/27 09:51:55;;;;;;;;;;;20.60;99.90;;;;;;5073838;28;19919;-76
2023/06/27 09:54:21;;;;;;;;;;;20.60;99.90;;;;;;5076371;28;19919;-66
2023/06/27 09:56:50;;;;;;;;;;;20.60;99.90;;;;;;5075978;28;19954;-65
2023/06/27 09:59:17;;;;;;;;;;;20.70;99.90;;;;;;5055954;28;19920;-75
2023/06/27 10:01:42;;;;;;;;;;;20.70;99.90;;;;;;5076322;28;19908;-66
2023/06/27 10:04:09;;;;;;;;;;;20.70;99.90;;;;;;5076384;28;19930;-66
2023/06/27 10:06:34;;;;;;;;;;;20.70;99.90;;;;;;5073857;28;19915;-83
2023/06/27 10:09:00;;;;;;;;;;;20.70;99.90;;;;;;5076601;28;19908;-66
2023/06/27 10:11:27;;;;;;;;;;;20.70;99.90;;;;;;5076646;28;20003;-65
2023/06/27 10:13:53;;;;;;;;;;;20.70;99.90;;;;;;5076300;28;19915;-83
2023/06/27 10:16:19;;;;;;;;;;;20.60;99.90;;;;;;5076395;28;19909;-67
2023/06/27 10:18:44;;;;;;;;;;;20.60;99.90;;;;;;5049597;28;19917;-79
2023/06/27 10:21:10;;;;;;;;;;;20.60;99.90;;;;;;5076114;28;19917;-65
2023/06/27 10:23:38;;;;;;;;;;;20.50;99.90;;;;;;5076643;28;19921;-76
2023/06/27 10:26:03;;;;;;;;;;;20.50;99.90;;;;;;5076305;28;19916;-65
2023/06/27 10:28:32;;;;;;;;;;;20.60;99.90;;;;;;5076259;28;20230;-66
2023/06/27 10:30:58;;;;;;;;;;;20.60;99.90;;;;;;5075937;28;19908;-65
2023/06/27 10:33:31;;;;;;;;;;;20.70;99.90;;;;;;5075900;28;19916;-65
2023/06/27 10:35:58;;;;;;;;;;;20.80;99.90;;;;;;5075709;28;19920;-66
2023/06/27 10:38:33;;;;;;;;;;;20.90;99.90;;;;;;5075363;28;19920;-64
2023/06/27 10:41:09;;;;;;;;;;;21.00;99.90;;;;;;5076106;28;19915;-65
2023/06/27 10:43:47;;;;;;;;;;;21.20;99.90;;;;;;5076051;28;19908;-67
2023/06/27 10:46:19;;;;;;;;;;;21.40;99.90;;;;;;5075826;28;19908;-66
2023/06/27 10:48:46;;;;;;;;;;;21.60;99.90;;;;;;5075691;28;19909;-67
2023/06/27 10:51:14;;;;;;;;;;;21.70;99.90;;;;;;5075152;28;19919;-67
2023/06/27 10:53:42;;;;;;;;;;;21.70;99.90;;;;;;5072493;28;20262;-67
2023/06/27 10:56:14;;;;;;;;;;;21.70;99.90;;;;;;5075086;28;19920;-66
2023/06/27 10:58:44;;;;;;;;;;;21.60;99.90;;;;;;5075171;28;20011;-67
2023/06/27 11:01:11;;;;;;;;;;;21.70;99.90;;;;;;5057138;28;19959;-66
2023/06/27 11:03:37;;;;;;;;;;;21.70;99.90;;;;;;5075621;28;19924;-68
2023/06/27 11:06:04;;;;;;;;;;;21.80;99.90;;;;;;5075780;28;19913;-79
2023/06/27 11:08:29;;;;;;;;;;;21.90;99.90;;;;;;5073882;28;20077;-67
2023/06/27 11:11:05;;;;;;;;;;;22.00;99.90;;;;;;5057504;28;19922;-83
2023/06/27 11:13:44;;;;;;;;;;;22.10;99.90;;;;;;5074831;28;19913;-83
2023/06/27 11:16:11;;;;;;;;;;;22.00;99.90;;;;;;5074493;28;19909;-66
2023/06/27 11:18:37;;;;;;;;;;;21.90;99.90;;;;;;5075070;28;20277;-65
2023/06/27 11:21:02;;;;;;;;;;;22.00;99.90;;;;;;5075230;28;19995;-65
2023/06/27 11:23:29;;;;;;;;;;;22.30;99.90;;;;;;5074883;28;20314;-67
2023/06/27 11:25:54;;;;;;;;;;;22.50;99.90;;;;;;5071487;28;19939;-65
2023/06/27 11:28:21;;;;;;;;;;;22.70;99.90;;;;;;5073994;28;19963;-65
2023/06/27 11:30:47;;;;;;;;;;;23.00;99.90;;;;;;5050222;28;19971;-84
2023/06/27 11:33:16;;;;;;;;;;;23.20;99.90;;;;;;5074566;28;19944;-66
2023/06/27 11:35:42;;;;;;;;;;;23.10;99.90;;;;;;5075027;28;19919;-67
2023/06/27 11:38:09;;;;;;;;;;;23.20;99.90;;;;;;5075022;28;19912;-67
2023/06/27 11:40:35;;;;;;;;;;;23.20;99.90;;;;;;5074676;28;19908;-65
2023/06/27 11:43:07;;;;;;;;;;;23.30;99.50;;;;;;5075094;28;19954;-65
2023/06/27 11:45:33;;;;;;;;;;;23.10;99.20;;;;;;5072829;28;19908;-66
2023/06/27 11:47:59;;;;;;;;;;;23.30;99.90;;;;;;5073610;28;19958;-66
2023/06/27 11:50:25;;;;;;;;;;;23.50;99.90;;;;;;5074975;28;19999;-67
2023/06/27 11:52:51;;;;;;;;;;;23.60;99.90;;;;;;5073212;28;20030;-65
2023/06/27 11:55:17;;;;;;;;;;;23.70;99.90;;;;;;5074584;28;20228;-66
2023/06/27 11:57:47;;;;;;;;;;;23.90;98.60;;;;;;5073977;28;19927;-67
2023/06/27 12:00:19;;;;;;;;;;;24.10;99.20;;;;;;5074527;28;20210;-83
2023/06/27 12:02:48;;;;;;;;;;;24.20;99.10;;;;;;5062246;28;20003;-66
2023/06/27 12:05:15;;;;;;;;;;;24.40;98.20;;;;;;5074598;28;19908;-82
2023/06/27 12:07:41;;;;;;;;;;;24.50;98.50;;;;;;5073770;28;20006;-79
2023/06/27 12:10:07;;;;;;;;;;;24.60;98.90;;;;;;5074935;28;20295;-66
2023/06/27 12:12:37;;;;;;;;;;;24.70;98.90;;;;;;5070592;28;19966;-81
2023/06/27 12:15:13;;;;;;;;;;;24.70;99.00;;;;;;5065086;28;19917;-65
2023/06/27 12:17:39;;;;;;;;;;;24.30;97.60;;;;;;5073182;28;20382;-82
2023/06/27 12:20:05;;;;;;;;;;;23.60;98.50;;;;;;5074545;28;19912;-67
2023/06/27 12:22:31;;;;;;;;;;;23.70;98.30;;;;;;5074169;28;19915;-68
2023/06/27 12:24:57;;;;;;;;;;;23.70;99.20;;;;;;5067343;28;20007;-66
2023/06/27 12:27:22;;;;;;;;;;;23.80;99.10;;;;;;5068759;28;20004;-66
2023/06/27 12:29:48;;;;;;;;;;;23.90;98.10;;;;;;5070100;28;20007;-66
2023/06/27 12:32:13;;;;;;;;;;;23.90;98.20;;;;;;5074707;28;19908;-66
2023/06/27 12:34:39;;;;;;;;;;;24.00;98.30;;;;;;5070664;28;19913;-85
2023/06/27 12:37:04;;;;;;;;;;;24.10;98.20;;;;;;5072797;28;19953;-67
2023/06/27 12:39:30;;;;;;;;;;;24.30;98.70;;;;;;5073762;28;19919;-83
2023/06/27 12:41:55;;;;;;;;;;;24.40;98.40;;;;;;5073553;28;20003;-66
2023/06/27 12:44:21;;;;;;;;;;;24.40;97.60;;;;;;5073354;28;20008;-81
2023/06/27 12:46:46;;;;;;;;;;;24.30;98.20;;;;;;5072710;28;19919;-74
2023/06/27 12:49:12;;;;;;;;;;;24.20;98.40;;;;;;5072619;28;19920;-66
2023/06/27 12:51:37;;;;;;;;;;;24.10;97.40;;;;;;5074021;28;20292;-66
2023/06/27 12:54:03;;;;;;;;;;;23.90;97.70;;;;;;5073708;28;19975;-64
2023/06/27 12:56:28;;;;;;;;;;;23.60;97.80;;;;;;5072108;28;19921;-66
2023/06/27 12:58:54;;;;;;;;;;;23.60;98.90;;;;;;5073815;28;19913;-82
2023/06/27 13:01:23;;;;;;;;;;;23.60;98.60;;;;;;5077352;28;19970;-67
2023/06/27 13:03:49;;;;;;;;;;;23.80;99.40;;;;;;5075805;28;20219;-66
2023/06/27 13:06:14;;;;;;;;;;;23.80;98.50;;;;;;5076336;28;19909;-66
2023/06/27 13:08:40;;;;;;;;;;;23.70;98.50;;;;;;5072015;28;19920;-82
2023/06/27 13:11:06;;;;;;;;;;;23.50;98.90;;;;;;5068198;28;19920;-85
2023/06/27 13:13:31;;;;;;;;;;;23.60;98.40;;;;;;5068450;28;19909;-88
2023/06/27 13:15:57;;;;;;;;;;;23.60;97.50;;;;;;5073849;28;19908;-82
2023/06/27 13:18:23;;;;;;;;;;;23.50;97.50;;;;;;5062360;28;19943;-83
2023/06/27 13:20:48;;;;;;;;;;;23.40;97.10;;;;;;5059458;28;19912;-88
2023/06/27 13:23:14;;;;;;;;;;;23.20;98.50;;;;;;5078081;28;19908;-69
2023/06/27 13:25:43;;;;;;;;;;;23.10;99.20;;;;;;5070927;28;19919;-84
2023/06/27 13:28:09;;;;;;;;;;;23.00;98.50;;;;;;5051845;28;19912;-88
2023/06/27 13:30:35;;;;;;;;;;;23.00;98.20;;;;;;5076943;28;19926;-85
2023/06/27 13:33:00;;;;;;;;;;;22.80;98.20;;;;;;5077965;28;19916;-82
2023/06/27 13:35:27;;;;;;;;;;;22.70;98.80;;;;;;5078020;28;19956;-84
2023/06/27 13:37:53;;;;;;;;;;;22.60;99.10;;;;;;5075676;28;20287;-85
2023/06/27 13:40:18;;;;;;;;;;;22.50;98.40;;;;;;5077172;28;19960;-86
2023/06/27 13:42:44;;;;;;;;;;;22.30;99.60;;;;;;5072424;28;19913;-87
2023/06/27 13:45:09;;;;;;;;;;;22.30;99.10;;;;;;5068269;28;19935;-82
2023/06/27 13:47:35;;;;;;;;;;;22.30;99.40;;;;;;5075948;28;19994;-87
2023/06/27 13:50:00;;;;;;;;;;;22.40;99.30;;;;;;5077375;28;19912;-85
2023/06/27 13:52:26;;;;;;;;;;;22.40;99.30;;;;;;5075270;28;19924;-65
2023/06/27 13:54:51;;;;;;;;;;;22.50;99.10;;;;;;5075215;28;19919;-84
2023/06/27 13:57:17;;;;;;;;;;;22.60;99.40;;;;;;5069593;28;20023;-74
2023/06/27 13:59:43;;;;;;;;;;;22.70;99.00;;;;;;5073802;28;20215;-83
2023/06/27 14:02:08;;;;;;;;;;;22.80;98.30;;;;;;5059239;28;19912;-85
2023/06/27 14:04:36;;;;;;;;;;;22.70;98.50;;;;;;5055950;28;19909;-77
2023/06/27 14:07:01;;;;;;;;;;;22.70;97.80;;;;;;5065285;28;19917;-80
2023/06/27 14:09:27;;;;;;;;;;;22.70;97.70;;;;;;5072278;28;19913;-67
2023/06/27 14:11:52;;;;;;;;;;;22.60;98.30;;;;;;5075758;28;19962;-83